createdAt,value
2018-08-03T00:00:16.916Z,0
2018-08-03T00:00:42.506Z,0
2018-08-03T00:01:08.070Z,0
2018-08-03T00:01:33.644Z,0
2018-08-03T00:01:59.230Z,0
2018-08-03T00:02:24.835Z,0
2018-08-03T00:02:50.409Z,0
2018-08-03T00:03:15.980Z,0
2018-08-03T00:03:41.562Z,0
2018-08-03T00:04:07.133Z,0
2018-08-03T00:04:32.712Z,0
2018-08-03T00:04:58.292Z,0
2018-08-03T00:05:23.870Z,0
2018-08-03T00:05:49.437Z,0
2018-08-03T00:06:15.024Z,0
2018-08-03T00:06:40.607Z,0
2018-08-03T00:07:06.198Z,0
2018-08-03T00:07:31.782Z,0
2018-08-03T00:07:57.378Z,0
2018-08-03T00:08:22.968Z,0
2018-08-03T00:08:48.537Z,0
2018-08-03T00:09:14.111Z,0
2018-08-03T00:09:39.683Z,0
2018-08-03T00:10:05.612Z,0
2018-08-03T00:10:31.199Z,0
2018-08-03T00:10:56.768Z,0
2018-08-03T00:11:22.338Z,0
2018-08-03T00:11:47.899Z,0
2018-08-03T00:12:13.491Z,0
2018-08-03T00:12:39.070Z,0
2018-08-03T00:13:04.648Z,0
2018-08-03T00:13:30.237Z,0
2018-08-03T00:13:55.811Z,0
2018-08-03T00:14:21.393Z,0
2018-08-03T00:14:46.978Z,0
2018-08-03T00:15:12.536Z,0
2018-08-03T00:15:38.110Z,0
2018-08-03T00:16:03.686Z,0
2018-08-03T00:16:29.274Z,0
2018-08-03T00:16:54.838Z,0
2018-08-03T00:17:20.434Z,0
2018-08-03T00:17:46.004Z,0
2018-08-03T00:18:11.584Z,0
2018-08-03T00:18:37.151Z,0
2018-08-03T00:19:02.730Z,0
2018-08-03T00:19:28.303Z,0
2018-08-03T00:19:53.889Z,0
2018-08-03T00:20:19.482Z,0
2018-08-03T00:20:45.061Z,0
2018-08-03T00:21:10.654Z,0
2018-08-03T00:21:36.224Z,0
2018-08-03T00:22:01.803Z,0
2018-08-03T00:22:27.371Z,0
2018-08-03T00:22:52.943Z,0
2018-08-03T00:23:18.546Z,0
2018-08-03T00:23:44.124Z,0
2018-08-03T00:24:09.706Z,0
2018-08-03T00:24:35.285Z,0
2018-08-03T00:25:00.886Z,0
2018-08-03T00:25:26.446Z,0
2018-08-03T00:25:52.010Z,0
2018-08-03T00:26:17.620Z,0
2018-08-03T00:26:43.200Z,0
2018-08-03T00:27:08.772Z,0
2018-08-03T00:27:34.343Z,0
2018-08-03T00:27:59.928Z,0
2018-08-03T00:28:25.492Z,0
2018-08-03T00:28:51.084Z,0
2018-08-03T00:29:16.663Z,0
2018-08-03T00:29:42.249Z,0
2018-08-03T00:30:07.822Z,0
2018-08-03T00:30:33.407Z,0
2018-08-03T00:30:58.982Z,0
2018-08-03T00:31:24.560Z,0
2018-08-03T00:31:50.149Z,0
2018-08-03T00:32:15.718Z,0
2018-08-03T00:32:41.294Z,0
2018-08-03T00:33:06.871Z,0
2018-08-03T00:33:32.439Z,0
2018-08-03T00:33:58.022Z,0
2018-08-03T00:34:23.584Z,0
2018-08-03T00:34:49.155Z,0
2018-08-03T00:35:14.734Z,0
2018-08-03T00:35:40.301Z,0
2018-08-03T00:36:05.884Z,0
2018-08-03T00:36:31.458Z,0
2018-08-03T00:36:57.036Z,0
2018-08-03T00:37:22.608Z,0
2018-08-03T00:37:48.198Z,0
2018-08-03T00:38:13.777Z,0
2018-08-03T00:38:39.340Z,0
2018-08-03T00:39:04.914Z,0
2018-08-03T00:39:30.492Z,0
2018-08-03T00:39:56.078Z,0
2018-08-03T00:40:21.670Z,0
2018-08-03T00:40:47.229Z,0
2018-08-03T00:41:12.824Z,0
2018-08-03T00:41:38.388Z,0
2018-08-03T00:42:03.962Z,0
2018-08-03T00:42:29.544Z,0
2018-08-03T00:42:55.117Z,0
2018-08-03T00:43:20.701Z,0
2018-08-03T00:43:46.274Z,0
2018-08-03T00:44:11.859Z,0
2018-08-03T00:44:37.456Z,0
2018-08-03T00:45:03.026Z,0
2018-08-03T00:45:28.588Z,0
2018-08-03T00:45:54.164Z,0
2018-08-03T00:46:19.753Z,0
2018-08-03T00:46:45.328Z,0
2018-08-03T00:47:10.935Z,0
2018-08-03T00:47:36.510Z,0
2018-08-03T00:48:02.089Z,0
2018-08-03T00:48:27.659Z,0
2018-08-03T00:48:53.232Z,0
2018-08-03T00:49:18.805Z,0
2018-08-03T00:49:44.362Z,0
2018-08-03T00:50:09.957Z,0
2018-08-03T00:50:35.540Z,0
2018-08-03T00:51:01.126Z,0
2018-08-03T00:51:26.708Z,0
2018-08-03T00:51:52.280Z,0
2018-08-03T00:52:17.870Z,0
2018-08-03T00:52:43.438Z,0
2018-08-03T00:53:09.013Z,0
2018-08-03T00:53:34.597Z,0
2018-08-03T00:54:00.187Z,0
2018-08-03T00:54:25.757Z,0
2018-08-03T00:54:51.356Z,0
2018-08-03T00:55:16.925Z,0
2018-08-03T00:55:42.511Z,0
2018-08-03T00:56:08.097Z,0
2018-08-03T00:56:33.675Z,0
2018-08-03T00:56:59.255Z,0
2018-08-03T00:57:24.855Z,0
2018-08-03T00:57:50.419Z,0
2018-08-03T00:58:15.979Z,0
2018-08-03T00:58:41.560Z,0
2018-08-03T00:59:07.124Z,0
2018-08-03T00:59:32.712Z,0
2018-08-03T00:59:58.286Z,0
2018-08-03T01:00:23.847Z,0
2018-08-03T01:00:49.414Z,0
2018-08-03T01:01:14.981Z,0
2018-08-03T01:01:40.569Z,0
2018-08-03T01:02:06.145Z,0
2018-08-03T01:02:31.752Z,0
2018-08-03T01:02:57.329Z,0
2018-08-03T01:03:22.904Z,0
2018-08-03T01:03:48.471Z,0
2018-08-03T01:04:14.068Z,0
2018-08-03T01:04:39.655Z,0
2018-08-03T01:05:05.237Z,0
2018-08-03T01:05:30.794Z,0
2018-08-03T01:05:56.394Z,0
2018-08-03T01:06:21.958Z,0
2018-08-03T01:06:47.551Z,0
2018-08-03T01:07:13.117Z,0
2018-08-03T01:07:38.707Z,0
2018-08-03T01:08:04.282Z,0
2018-08-03T01:08:29.875Z,0
2018-08-03T01:08:55.471Z,0
2018-08-03T01:09:21.049Z,0
2018-08-03T01:09:46.645Z,0
2018-08-03T01:10:12.205Z,0
2018-08-03T01:10:37.777Z,0
2018-08-03T01:11:03.364Z,0
2018-08-03T01:11:28.945Z,0
2018-08-03T01:11:54.512Z,0
2018-08-03T01:12:20.099Z,0
2018-08-03T01:12:45.676Z,0
2018-08-03T01:13:11.243Z,0
2018-08-03T01:13:36.840Z,0
2018-08-03T01:14:02.400Z,0
2018-08-03T01:14:27.996Z,0
2018-08-03T01:14:53.552Z,0
2018-08-03T01:15:19.137Z,0
2018-08-03T01:15:44.712Z,0
2018-08-03T01:16:10.266Z,0
2018-08-03T01:16:35.836Z,0
2018-08-03T01:17:01.439Z,0
2018-08-03T01:17:27.007Z,0
2018-08-03T01:17:52.593Z,0
2018-08-03T01:18:18.191Z,0
2018-08-03T01:18:43.770Z,0
2018-08-03T01:19:09.346Z,0
2018-08-03T01:19:34.911Z,0
2018-08-03T01:20:00.476Z,0
2018-08-03T01:20:26.048Z,0
2018-08-03T01:20:51.637Z,0
2018-08-03T01:21:17.220Z,0
2018-08-03T01:21:42.906Z,0
2018-08-03T01:22:08.494Z,0
2018-08-03T01:22:34.074Z,0
2018-08-03T01:22:59.660Z,0
2018-08-03T01:23:25.229Z,0
2018-08-03T01:23:50.802Z,0
2018-08-03T01:24:16.367Z,0
2018-08-03T01:24:41.926Z,0
2018-08-03T01:25:07.509Z,0
2018-08-03T01:25:33.090Z,0
2018-08-03T01:25:58.665Z,0
2018-08-03T01:26:24.239Z,0
2018-08-03T01:26:49.817Z,0
2018-08-03T01:27:15.395Z,0
2018-08-03T01:27:40.975Z,0
2018-08-03T01:28:06.560Z,0
2018-08-03T01:28:32.122Z,0
2018-08-03T01:28:57.724Z,0
2018-08-03T01:29:23.306Z,0
2018-08-03T01:29:48.871Z,0
2018-08-03T01:30:14.446Z,0
2018-08-03T01:30:39.996Z,0
2018-08-03T01:31:05.574Z,0
2018-08-03T01:31:31.147Z,0
2018-08-03T01:31:56.740Z,0
2018-08-03T01:32:22.331Z,0
2018-08-03T01:32:47.912Z,0
2018-08-03T01:33:13.484Z,0
2018-08-03T01:33:39.054Z,0
2018-08-03T01:34:04.625Z,0
2018-08-03T01:34:30.194Z,0
2018-08-03T01:34:55.776Z,0
2018-08-03T01:35:21.368Z,0
2018-08-03T01:35:46.949Z,0
2018-08-03T01:36:12.520Z,0
2018-08-03T01:36:38.099Z,0
2018-08-03T01:37:03.665Z,0
2018-08-03T01:37:29.245Z,0
2018-08-03T01:37:54.895Z,0
2018-08-03T01:38:20.382Z,0
2018-08-03T01:38:45.998Z,0
2018-08-03T01:39:11.588Z,0
2018-08-03T01:39:37.171Z,0
2018-08-03T01:40:02.762Z,0
2018-08-03T01:40:28.336Z,0
2018-08-03T01:40:53.915Z,0
2018-08-03T01:41:19.496Z,0
2018-08-03T01:41:45.084Z,0
2018-08-03T01:42:10.665Z,0
2018-08-03T01:42:36.233Z,0
2018-08-03T01:43:01.815Z,0
2018-08-03T01:43:27.393Z,0
2018-08-03T01:43:52.976Z,0
2018-08-03T01:44:18.547Z,0
2018-08-03T01:44:44.107Z,0
2018-08-03T01:45:09.687Z,0
2018-08-03T01:45:35.277Z,0
2018-08-03T01:46:00.857Z,0
2018-08-03T01:46:26.423Z,0
2018-08-03T01:46:52.010Z,0
2018-08-03T01:47:17.581Z,0
2018-08-03T01:47:43.188Z,0
2018-08-03T01:48:08.728Z,0
2018-08-03T01:48:34.305Z,0
2018-08-03T01:48:59.865Z,0
2018-08-03T01:49:25.425Z,0
2018-08-03T01:49:51.007Z,0
2018-08-03T01:50:16.584Z,0
2018-08-03T01:50:42.160Z,0
2018-08-03T01:51:07.730Z,0
2018-08-03T01:51:33.301Z,0
2018-08-03T01:51:58.883Z,0
2018-08-03T01:52:24.461Z,0
2018-08-03T01:52:50.032Z,0
2018-08-03T01:53:15.606Z,0
2018-08-03T01:53:41.177Z,0
2018-08-03T01:54:06.826Z,0
2018-08-03T01:54:32.398Z,0
2018-08-03T01:54:57.973Z,0
2018-08-03T01:55:23.542Z,0
2018-08-03T01:55:49.125Z,0
2018-08-03T01:56:14.725Z,0
2018-08-03T01:56:40.288Z,0
2018-08-03T01:57:05.876Z,0
2018-08-03T01:57:31.470Z,0
2018-08-03T01:57:57.042Z,0
2018-08-03T01:58:22.611Z,0
2018-08-03T01:58:48.183Z,0
2018-08-03T01:59:13.798Z,0
2018-08-03T01:59:39.315Z,0
2018-08-03T02:00:04.920Z,0
2018-08-03T02:00:30.480Z,0
2018-08-03T02:00:56.036Z,0
2018-08-03T02:01:21.627Z,0
2018-08-03T02:01:47.220Z,0
2018-08-03T02:02:12.804Z,0
2018-08-03T02:02:38.380Z,0
2018-08-03T02:03:03.952Z,0
2018-08-03T02:03:29.528Z,0
2018-08-03T02:03:55.086Z,0
2018-08-03T02:04:20.674Z,0
2018-08-03T02:04:46.240Z,0
2018-08-03T02:05:11.835Z,0
2018-08-03T02:05:37.399Z,0
2018-08-03T02:06:02.972Z,0
2018-08-03T02:06:28.563Z,0
2018-08-03T02:06:54.154Z,0
2018-08-03T02:07:19.756Z,0
2018-08-03T02:07:45.335Z,0
2018-08-03T02:08:10.901Z,0
2018-08-03T02:08:36.470Z,0
2018-08-03T02:09:02.062Z,0
2018-08-03T02:09:27.708Z,0
2018-08-03T02:09:53.278Z,0
2018-08-03T02:10:18.852Z,0
2018-08-03T02:10:44.434Z,0
2018-08-03T02:11:09.988Z,0
2018-08-03T02:11:35.565Z,0
2018-08-03T02:12:01.128Z,0
2018-08-03T02:12:26.712Z,0
2018-08-03T02:12:52.289Z,0
2018-08-03T02:13:17.861Z,0
2018-08-03T02:13:43.445Z,0
2018-08-03T02:14:09.015Z,0
2018-08-03T02:14:34.594Z,0
2018-08-03T02:15:00.174Z,0
2018-08-03T02:15:25.755Z,0
2018-08-03T02:15:51.334Z,0
2018-08-03T02:16:16.900Z,0
2018-08-03T02:16:42.481Z,0
2018-08-03T02:17:08.060Z,0
2018-08-03T02:17:33.642Z,0
2018-08-03T02:17:59.218Z,0
2018-08-03T02:18:24.773Z,0
2018-08-03T02:18:50.344Z,0
2018-08-03T02:19:15.949Z,0
2018-08-03T02:19:41.523Z,0
2018-08-03T02:20:07.095Z,0
2018-08-03T02:20:32.690Z,0
2018-08-03T02:20:58.296Z,0
2018-08-03T02:21:23.890Z,0
2018-08-03T02:21:49.453Z,0
2018-08-03T02:22:15.020Z,0
2018-08-03T02:22:40.600Z,0
2018-08-03T02:23:06.196Z,0
2018-08-03T02:23:31.776Z,0
2018-08-03T02:23:57.350Z,0
2018-08-03T02:24:22.946Z,0
2018-08-03T02:24:48.500Z,0
2018-08-03T02:25:14.088Z,0
2018-08-03T02:25:39.793Z,0
2018-08-03T02:26:05.390Z,0
2018-08-03T02:26:30.980Z,0
2018-08-03T02:26:56.563Z,0
2018-08-03T02:27:22.155Z,0
2018-08-03T02:27:47.733Z,0
2018-08-03T02:28:13.303Z,0
2018-08-03T02:28:38.890Z,0
2018-08-03T02:29:04.626Z,0
2018-08-03T02:29:30.349Z,0
2018-08-03T02:29:55.911Z,0
2018-08-03T02:30:21.479Z,0
2018-08-03T02:30:47.056Z,0
2018-08-03T02:31:12.621Z,0
2018-08-03T02:31:38.188Z,0
2018-08-03T02:32:03.758Z,0
2018-08-03T02:32:29.331Z,0
2018-08-03T02:32:54.897Z,0
2018-08-03T02:33:20.464Z,0
2018-08-03T02:33:46.040Z,0
2018-08-03T02:34:11.613Z,0
2018-08-03T02:34:37.192Z,0
2018-08-03T02:35:02.772Z,0
2018-08-03T02:35:28.370Z,0
2018-08-03T02:35:53.914Z,0
2018-08-03T02:36:19.475Z,0
2018-08-03T02:36:45.062Z,0
2018-08-03T02:37:10.643Z,0
2018-08-03T02:37:36.201Z,0
2018-08-03T02:38:01.771Z,0
2018-08-03T02:38:27.377Z,0
2018-08-03T02:38:52.966Z,0
2018-08-03T02:39:18.554Z,0
2018-08-03T02:39:44.164Z,0
2018-08-03T02:40:09.734Z,0
2018-08-03T02:40:35.305Z,0
2018-08-03T02:41:00.880Z,0
2018-08-03T02:41:26.451Z,0
2018-08-03T02:41:52.014Z,0
2018-08-03T02:42:17.579Z,0
2018-08-03T02:42:43.144Z,0
2018-08-03T02:43:08.717Z,0
2018-08-03T02:43:34.287Z,0
2018-08-03T02:43:59.876Z,0
2018-08-03T02:44:25.440Z,0
2018-08-03T02:44:51.017Z,0
2018-08-03T02:45:16.571Z,0
2018-08-03T02:45:42.157Z,0
2018-08-03T02:46:07.771Z,0
2018-08-03T02:46:33.357Z,0
2018-08-03T02:46:58.947Z,0
2018-08-03T02:47:24.511Z,0
2018-08-03T02:47:50.071Z,0
2018-08-03T02:48:15.649Z,0
2018-08-03T02:48:41.231Z,0
2018-08-03T02:49:06.806Z,0
2018-08-03T02:49:32.364Z,0
2018-08-03T02:49:57.954Z,0
2018-08-03T02:50:23.539Z,0
2018-08-03T02:50:49.094Z,0
2018-08-03T02:51:14.666Z,0
2018-08-03T02:51:40.249Z,0
2018-08-03T02:52:05.817Z,0
2018-08-03T02:52:31.425Z,0
2018-08-03T02:52:56.996Z,0
2018-08-03T02:53:22.555Z,0
2018-08-03T02:53:48.142Z,0
2018-08-03T02:54:13.723Z,0
2018-08-03T02:54:39.301Z,0
2018-08-03T02:55:04.873Z,0
2018-08-03T02:55:30.447Z,0
2018-08-03T02:55:56.028Z,0
2018-08-03T02:56:21.601Z,0
2018-08-03T02:56:47.173Z,0
2018-08-03T02:57:12.823Z,0
2018-08-03T02:57:38.389Z,0
2018-08-03T02:58:03.954Z,0
2018-08-03T02:58:29.526Z,0
2018-08-03T02:58:55.125Z,0
2018-08-03T02:59:20.681Z,0
2018-08-03T02:59:46.261Z,0
2018-08-03T03:00:11.841Z,0
2018-08-03T03:00:37.416Z,0
2018-08-03T03:01:02.974Z,0
2018-08-03T03:01:28.568Z,0
2018-08-03T03:01:54.146Z,0
2018-08-03T03:02:19.729Z,0
2018-08-03T03:02:45.293Z,0
2018-08-03T03:03:10.860Z,0
2018-08-03T03:03:36.439Z,0
2018-08-03T03:04:02.009Z,0
2018-08-03T03:04:27.574Z,0
2018-08-03T03:04:53.138Z,0
2018-08-03T03:05:18.720Z,0
2018-08-03T03:05:44.297Z,0
2018-08-03T03:06:09.860Z,0
2018-08-03T03:06:35.435Z,0
2018-08-03T03:07:01.010Z,0
2018-08-03T03:07:26.692Z,0
2018-08-03T03:07:52.146Z,0
2018-08-03T03:08:17.719Z,0
2018-08-03T03:08:43.292Z,0
2018-08-03T03:09:08.863Z,0
2018-08-03T03:09:34.445Z,0
2018-08-03T03:10:00.068Z,0
2018-08-03T03:10:25.656Z,0
2018-08-03T03:10:51.221Z,0
2018-08-03T03:11:16.805Z,0
2018-08-03T03:11:42.374Z,0
2018-08-03T03:12:07.970Z,0
2018-08-03T03:12:33.538Z,0
2018-08-03T03:12:59.105Z,0
2018-08-03T03:13:24.687Z,0
2018-08-03T03:13:50.255Z,0
2018-08-03T03:14:15.825Z,0
2018-08-03T03:14:41.421Z,0
2018-08-03T03:15:06.993Z,0
2018-08-03T03:15:32.600Z,0
2018-08-03T03:15:58.139Z,0
2018-08-03T03:16:23.705Z,0
2018-08-03T03:16:49.283Z,0
2018-08-03T03:17:14.835Z,0
2018-08-03T03:17:40.401Z,0
2018-08-03T03:18:05.962Z,0
2018-08-03T03:18:31.544Z,0
2018-08-03T03:18:57.169Z,0
2018-08-03T03:19:22.750Z,0
2018-08-03T03:19:48.367Z,0
2018-08-03T03:20:13.896Z,0
2018-08-03T03:20:39.473Z,0
2018-08-03T03:21:05.039Z,0
2018-08-03T03:21:30.617Z,0
2018-08-03T03:21:56.171Z,0
2018-08-03T03:22:21.734Z,0
2018-08-03T03:22:47.315Z,0
2018-08-03T03:23:12.897Z,0
2018-08-03T03:23:38.469Z,0
2018-08-03T03:24:04.053Z,0
2018-08-03T03:24:29.630Z,0
2018-08-03T03:24:55.202Z,0
2018-08-03T03:25:20.777Z,0
2018-08-03T03:25:46.363Z,0
2018-08-03T03:26:11.937Z,0
2018-08-03T03:26:37.526Z,0
2018-08-03T03:27:03.104Z,0
2018-08-03T03:27:28.679Z,0
2018-08-03T03:27:54.248Z,0
2018-08-03T03:28:19.824Z,0
2018-08-03T03:28:45.389Z,0
2018-08-03T03:29:10.944Z,0
2018-08-03T03:29:36.539Z,0
2018-08-03T03:30:02.100Z,0
2018-08-03T03:30:27.655Z,0
2018-08-03T03:30:53.253Z,0
2018-08-03T03:31:18.793Z,0
2018-08-03T03:31:44.375Z,0
2018-08-03T03:32:09.966Z,0
2018-08-03T03:32:35.574Z,0
2018-08-03T03:33:01.128Z,0
2018-08-03T03:33:26.710Z,0
2018-08-03T03:33:52.266Z,0
2018-08-03T03:34:17.843Z,0
2018-08-03T03:34:43.425Z,0
2018-08-03T03:35:08.999Z,0
2018-08-03T03:35:34.561Z,0
2018-08-03T03:36:00.131Z,0
2018-08-03T03:36:25.707Z,0
2018-08-03T03:36:51.261Z,0
2018-08-03T03:37:16.852Z,0
2018-08-03T03:37:42.425Z,0
2018-08-03T03:38:07.999Z,0
2018-08-03T03:38:33.555Z,0
2018-08-03T03:38:59.121Z,0
2018-08-03T03:39:24.689Z,0
2018-08-03T03:39:50.267Z,0
2018-08-03T03:40:15.827Z,0
2018-08-03T03:40:41.404Z,0
2018-08-03T03:41:06.978Z,0
2018-08-03T03:41:32.524Z,0
2018-08-03T03:41:58.103Z,0
2018-08-03T03:42:23.665Z,0
2018-08-03T03:42:49.217Z,0
2018-08-03T03:43:14.805Z,0
2018-08-03T03:43:40.393Z,0
2018-08-03T03:44:05.962Z,0
2018-08-03T03:44:31.539Z,0
2018-08-03T03:44:57.113Z,0
2018-08-03T03:45:22.712Z,0
2018-08-03T03:45:48.284Z,0
2018-08-03T03:46:13.866Z,0
2018-08-03T03:46:39.444Z,0
2018-08-03T03:47:05.010Z,0
2018-08-03T03:47:30.619Z,0
2018-08-03T03:47:56.197Z,0
2018-08-03T03:48:21.803Z,0
2018-08-03T03:48:47.378Z,0
2018-08-03T03:49:12.950Z,4
2018-08-03T03:49:38.516Z,4
2018-08-03T03:50:04.095Z,4
2018-08-03T03:50:29.653Z,4
2018-08-03T03:50:55.255Z,4
2018-08-03T03:51:20.822Z,4
2018-08-03T03:51:46.353Z,4
2018-08-03T03:52:11.936Z,4
2018-08-03T03:52:37.511Z,4
2018-08-03T03:53:03.081Z,4
2018-08-03T03:53:28.642Z,4
2018-08-03T03:53:54.231Z,0
2018-08-03T03:54:19.814Z,0
2018-08-03T03:54:45.384Z,0
2018-08-03T03:55:10.956Z,0
2018-08-03T03:55:36.514Z,4
2018-08-03T03:56:02.109Z,8
2018-08-03T03:56:27.659Z,4
2018-08-03T03:56:53.231Z,4
2018-08-03T03:57:18.801Z,4
2018-08-03T03:57:44.380Z,8
2018-08-03T03:58:09.932Z,8
2018-08-03T03:58:35.519Z,4
2018-08-03T03:59:01.136Z,4
2018-08-03T03:59:26.693Z,4
2018-08-03T03:59:52.255Z,4
2018-08-03T04:00:17.829Z,8
2018-08-03T04:00:43.391Z,8
2018-08-03T04:01:08.964Z,8
2018-08-03T04:01:34.530Z,8
2018-08-03T04:02:00.097Z,8
2018-08-03T04:02:25.647Z,8
2018-08-03T04:02:51.245Z,8
2018-08-03T04:03:16.813Z,8
2018-08-03T04:03:42.398Z,8
2018-08-03T04:04:07.953Z,8
2018-08-03T04:04:33.511Z,8
2018-08-03T04:04:59.087Z,8
2018-08-03T04:05:24.681Z,8
2018-08-03T04:05:50.263Z,8
2018-08-03T04:06:15.824Z,8
2018-08-03T04:06:41.415Z,8
2018-08-03T04:07:07.009Z,8
2018-08-03T04:07:32.632Z,12
2018-08-03T04:07:58.205Z,8
2018-08-03T04:08:23.756Z,8
2018-08-03T04:08:49.329Z,8
2018-08-03T04:09:14.901Z,8
2018-08-03T04:09:40.470Z,8
2018-08-03T04:10:06.051Z,8
2018-08-03T04:10:31.625Z,8
2018-08-03T04:10:57.225Z,8
2018-08-03T04:11:22.777Z,8
2018-08-03T04:11:48.380Z,8
2018-08-03T04:12:14.019Z,8
2018-08-03T04:12:39.539Z,8
2018-08-03T04:13:05.117Z,8
2018-08-03T04:13:30.705Z,8
2018-08-03T04:13:56.276Z,8
2018-08-03T04:14:21.859Z,12
2018-08-03T04:14:47.443Z,12
2018-08-03T04:15:13.012Z,12
2018-08-03T04:15:38.613Z,12
2018-08-03T04:16:04.178Z,12
2018-08-03T04:16:29.775Z,8
2018-08-03T04:16:55.354Z,8
2018-08-03T04:17:20.921Z,12
2018-08-03T04:17:46.526Z,12
2018-08-03T04:18:12.089Z,12
2018-08-03T04:18:37.653Z,12
2018-08-03T04:19:03.222Z,8
2018-08-03T04:19:28.831Z,4
2018-08-03T04:19:54.421Z,8
2018-08-03T04:20:20.007Z,8
2018-08-03T04:20:45.576Z,8
2018-08-03T04:21:11.373Z,12
2018-08-03T04:21:36.906Z,12
2018-08-03T04:22:02.472Z,16
2018-08-03T04:22:28.046Z,20
2018-08-03T04:22:53.624Z,20
2018-08-03T04:23:19.201Z,20
2018-08-03T04:23:44.769Z,12
2018-08-03T04:24:10.341Z,20
2018-08-03T04:24:35.909Z,20
2018-08-03T04:25:01.471Z,24
2018-08-03T04:25:27.096Z,24
2018-08-03T04:25:52.632Z,24
2018-08-03T04:26:18.191Z,24
2018-08-03T04:26:43.763Z,20
2018-08-03T04:27:09.335Z,20
2018-08-03T04:27:34.899Z,20
2018-08-03T04:28:00.506Z,24
2018-08-03T04:28:26.095Z,24
2018-08-03T04:28:51.690Z,24
2018-08-03T04:29:17.289Z,24
2018-08-03T04:29:42.859Z,24
2018-08-03T04:30:08.423Z,24
2018-08-03T04:30:34.006Z,28
2018-08-03T04:30:59.595Z,24
2018-08-03T04:31:25.157Z,24
2018-08-03T04:31:50.752Z,24
2018-08-03T04:32:16.321Z,24
2018-08-03T04:32:41.886Z,24
2018-08-03T04:33:07.447Z,28
2018-08-03T04:33:33.012Z,28
2018-08-03T04:33:58.600Z,28
2018-08-03T04:34:24.160Z,28
2018-08-03T04:34:49.741Z,24
2018-08-03T04:35:15.302Z,28
2018-08-03T04:35:40.907Z,28
2018-08-03T04:36:06.492Z,24
2018-08-03T04:36:32.086Z,28
2018-08-03T04:36:57.653Z,32
2018-08-03T04:37:23.225Z,28
2018-08-03T04:37:48.801Z,28
2018-08-03T04:38:14.374Z,28
2018-08-03T04:38:39.945Z,28
2018-08-03T04:39:05.531Z,32
2018-08-03T04:39:31.078Z,32
2018-08-03T04:39:56.659Z,32
2018-08-03T04:40:22.229Z,28
2018-08-03T04:40:47.792Z,28
2018-08-03T04:41:13.365Z,32
2018-08-03T04:41:38.951Z,32
2018-08-03T04:42:04.534Z,32
2018-08-03T04:42:30.155Z,32
2018-08-03T04:42:55.667Z,32
2018-08-03T04:43:21.241Z,32
2018-08-03T04:43:46.804Z,32
2018-08-03T04:44:12.375Z,32
2018-08-03T04:44:37.958Z,32
2018-08-03T04:45:03.534Z,32
2018-08-03T04:45:29.111Z,32
2018-08-03T04:45:54.684Z,32
2018-08-03T04:46:20.266Z,36
2018-08-03T04:46:45.843Z,36
2018-08-03T04:47:11.408Z,36
2018-08-03T04:47:36.993Z,32
2018-08-03T04:48:02.595Z,32
2018-08-03T04:48:28.177Z,32
2018-08-03T04:48:53.756Z,36
2018-08-03T04:49:19.338Z,36
2018-08-03T04:49:44.909Z,36
2018-08-03T04:50:10.481Z,36
2018-08-03T04:50:36.049Z,36
2018-08-03T04:51:01.632Z,36
2018-08-03T04:51:27.203Z,36
2018-08-03T04:51:52.778Z,36
2018-08-03T04:52:18.350Z,36
2018-08-03T04:52:43.924Z,36
2018-08-03T04:53:09.511Z,36
2018-08-03T04:53:35.077Z,36
2018-08-03T04:54:00.632Z,36
2018-08-03T04:54:26.213Z,36
2018-08-03T04:54:51.811Z,36
2018-08-03T04:55:17.366Z,36
2018-08-03T04:55:42.931Z,40
2018-08-03T04:56:08.494Z,40
2018-08-03T04:56:34.069Z,40
2018-08-03T04:56:59.642Z,40
2018-08-03T04:57:25.223Z,36
2018-08-03T04:57:50.807Z,36
2018-08-03T04:58:16.388Z,36
2018-08-03T04:58:41.979Z,36
2018-08-03T04:59:07.539Z,40
2018-08-03T04:59:33.145Z,40
2018-08-03T04:59:58.713Z,40
2018-08-03T05:00:24.282Z,40
2018-08-03T05:00:49.880Z,40
2018-08-03T05:01:15.435Z,40
2018-08-03T05:01:41.020Z,40
2018-08-03T05:02:06.595Z,40
2018-08-03T05:02:32.178Z,40
2018-08-03T05:02:57.753Z,40
2018-08-03T05:03:23.329Z,44
2018-08-03T05:03:48.909Z,44
2018-08-03T05:04:14.497Z,44
2018-08-03T05:04:40.082Z,40
2018-08-03T05:05:05.694Z,40
2018-08-03T05:05:31.252Z,40
2018-08-03T05:05:56.837Z,40
2018-08-03T05:06:22.414Z,40
2018-08-03T05:06:49.169Z,40
2018-08-03T05:07:14.866Z,40
2018-08-03T05:07:40.450Z,40
2018-08-03T05:08:06.024Z,44
2018-08-03T05:08:31.603Z,44
2018-08-03T05:08:57.166Z,44
2018-08-03T05:09:22.753Z,44
2018-08-03T05:09:48.326Z,44
2018-08-03T05:10:13.903Z,44
2018-08-03T05:10:39.475Z,40
2018-08-03T05:11:05.057Z,40
2018-08-03T05:11:30.631Z,44
2018-08-03T05:11:56.245Z,44
2018-08-03T05:12:21.827Z,44
2018-08-03T05:12:47.399Z,44
2018-08-03T05:13:12.961Z,44
2018-08-03T05:13:38.553Z,44
2018-08-03T05:14:04.134Z,44
2018-08-03T05:14:29.709Z,48
2018-08-03T05:14:55.293Z,44
2018-08-03T05:15:20.870Z,48
2018-08-03T05:15:46.431Z,44
2018-08-03T05:16:12.003Z,44
2018-08-03T05:16:37.595Z,44
2018-08-03T05:17:03.177Z,44
2018-08-03T05:17:28.769Z,40
2018-08-03T05:17:54.332Z,44
2018-08-03T05:18:19.917Z,48
2018-08-03T05:18:45.504Z,48
2018-08-03T05:19:11.070Z,48
2018-08-03T05:19:36.645Z,48
2018-08-03T05:20:02.219Z,48
2018-08-03T05:20:27.777Z,48
2018-08-03T05:20:53.358Z,44
2018-08-03T05:21:18.951Z,44
2018-08-03T05:21:44.523Z,44
2018-08-03T05:22:10.092Z,44
2018-08-03T05:22:35.658Z,44
2018-08-03T05:23:01.211Z,48
2018-08-03T05:23:26.794Z,48
2018-08-03T05:23:52.361Z,48
2018-08-03T05:24:17.947Z,48
2018-08-03T05:24:43.520Z,48
2018-08-03T05:25:09.095Z,48
2018-08-03T05:25:34.688Z,48
2018-08-03T05:26:00.267Z,48
2018-08-03T05:26:25.842Z,48
2018-08-03T05:26:51.422Z,48
2018-08-03T05:27:16.993Z,48
2018-08-03T05:27:42.577Z,52
2018-08-03T05:28:08.144Z,48
2018-08-03T05:28:33.700Z,48
2018-08-03T05:28:59.262Z,48
2018-08-03T05:29:24.867Z,48
2018-08-03T05:29:50.441Z,48
2018-08-03T05:30:16.050Z,48
2018-08-03T05:30:41.595Z,52
2018-08-03T05:31:07.185Z,48
2018-08-03T05:31:32.769Z,52
2018-08-03T05:31:58.341Z,52
2018-08-03T05:32:23.919Z,52
2018-08-03T05:32:49.490Z,52
2018-08-03T05:33:15.056Z,56
2018-08-03T05:33:40.654Z,56
2018-08-03T05:34:06.211Z,56
2018-08-03T05:34:31.791Z,60
2018-08-03T05:34:57.372Z,60
2018-08-03T05:35:22.958Z,60
2018-08-03T05:35:48.604Z,64
2018-08-03T05:36:14.138Z,68
2018-08-03T05:36:39.684Z,68
2018-08-03T05:37:05.252Z,68
2018-08-03T05:37:30.853Z,72
2018-08-03T05:37:56.444Z,76
2018-08-03T05:38:22.019Z,76
2018-08-03T05:38:47.589Z,80
2018-08-03T05:39:13.187Z,84
2018-08-03T05:39:38.765Z,84
2018-08-03T05:40:04.342Z,84
2018-08-03T05:40:29.905Z,88
2018-08-03T05:40:56.118Z,88
2018-08-03T05:41:21.704Z,92
2018-08-03T05:41:47.264Z,92
2018-08-03T05:42:12.846Z,96
2018-08-03T05:42:38.460Z,92
2018-08-03T05:43:03.986Z,96
2018-08-03T05:43:29.582Z,96
2018-08-03T05:43:55.167Z,96
2018-08-03T05:44:20.728Z,96
2018-08-03T05:44:46.303Z,96
2018-08-03T05:45:11.883Z,96
2018-08-03T05:45:37.570Z,96
2018-08-03T05:46:03.024Z,96
2018-08-03T05:46:28.583Z,96
2018-08-03T05:46:54.168Z,96
2018-08-03T05:47:19.743Z,92
2018-08-03T05:47:45.319Z,92
2018-08-03T05:48:10.880Z,92
2018-08-03T05:48:36.455Z,96
2018-08-03T05:49:02.058Z,96
2018-08-03T05:49:27.633Z,96
2018-08-03T05:49:53.219Z,96
2018-08-03T05:50:18.852Z,96
2018-08-03T05:50:44.331Z,96
2018-08-03T05:51:09.915Z,96
2018-08-03T05:51:35.489Z,96
2018-08-03T05:52:01.059Z,96
2018-08-03T05:52:26.674Z,96
2018-08-03T05:52:52.220Z,96
2018-08-03T05:53:17.791Z,96
2018-08-03T05:53:43.384Z,96
2018-08-03T05:54:08.950Z,96
2018-08-03T05:54:34.521Z,96
2018-08-03T05:55:00.090Z,96
2018-08-03T05:55:25.684Z,96
2018-08-03T05:55:51.257Z,96
2018-08-03T05:56:16.815Z,96
2018-08-03T05:56:42.388Z,96
2018-08-03T05:57:07.957Z,96
2018-08-03T05:57:33.547Z,96
2018-08-03T05:57:59.130Z,96
2018-08-03T05:58:24.689Z,96
2018-08-03T05:58:50.255Z,96
2018-08-03T05:59:15.854Z,96
2018-08-03T05:59:41.425Z,92
2018-08-03T06:00:06.996Z,96
2018-08-03T06:00:32.571Z,96
2018-08-03T06:00:58.139Z,96
2018-08-03T06:01:23.709Z,96
2018-08-03T06:01:49.289Z,96
2018-08-03T06:02:14.882Z,96
2018-08-03T06:02:40.456Z,96
2018-08-03T06:03:06.038Z,96
2018-08-03T06:03:31.619Z,96
2018-08-03T06:03:57.206Z,96
2018-08-03T06:04:22.755Z,96
2018-08-03T06:04:48.332Z,96
2018-08-03T06:05:13.904Z,96
2018-08-03T06:05:39.485Z,96
2018-08-03T06:06:05.051Z,96
2018-08-03T06:06:30.664Z,96
2018-08-03T06:06:56.240Z,96
2018-08-03T06:07:21.815Z,96
2018-08-03T06:07:47.396Z,96
2018-08-03T06:08:12.983Z,96
2018-08-03T06:08:38.544Z,96
2018-08-03T06:09:04.127Z,96
2018-08-03T06:09:29.747Z,96
2018-08-03T06:09:55.277Z,96
2018-08-03T06:10:20.847Z,96
2018-08-03T06:10:46.431Z,96
2018-08-03T06:11:12.001Z,96
2018-08-03T06:11:37.579Z,96
2018-08-03T06:12:03.139Z,96
2018-08-03T06:12:28.708Z,96
2018-08-03T06:12:54.280Z,92
2018-08-03T06:13:19.848Z,96
2018-08-03T06:13:45.430Z,96
2018-08-03T06:14:10.992Z,96